Time;durP1;ratioP1;P1;durP2;ratioP2;P2;SDS_P1;SDS_P2;PMS_P1;PMS_P2;Temp;Humidity;BMP_temperature;BMP_pressure;BME280_temperature;BME280_humidity;BME280_pressure;Samples;Min_cycle;Max_cycle;Signal;HPM_P1;HPM_P2
2022/05/16 00:00:43;;;;;;;0.85;0.25;;;20.00;73.20;;;;;;4941386;29;20046;-80
2022/05/16 00:03:09;;;;;;;0.08;0.08;;;20.00;73.70;;;;;;4935070;29;20036;-79
2022/05/16 00:05:35;;;;;;;2.33;0.75;;;20.00;75.00;;;;;;4943392;29;20031;-79
2022/05/16 00:08:01;;;;;;;0.95;0.35;;;20.00;78.00;;;;;;4934513;29;20034;-79
2022/05/16 00:10:27;;;;;;;0.00;0.00;;;19.90;78.20;;;;;;4932868;29;20119;-78
2022/05/16 00:12:54;;;;;;;0.40;0.40;;;19.90;76.80;;;;;;4931876;29;20365;-79
2022/05/16 00:15:22;;;;;;;0.00;0.00;;;19.70;79.80;;;;;;4932398;29;20519;-79
2022/05/16 00:17:47;;;;;;;0.10;0.10;;;19.70;78.80;;;;;;4933257;29;20050;-79
2022/05/16 00:20:14;;;;;;;0.25;0.20;;;19.80;78.80;;;;;;4931655;29;20031;-79
2022/05/16 00:22:40;;;;;;;1.08;0.60;;;19.80;79.80;;;;;;4931746;29;20079;-79
2022/05/16 00:25:09;;;;;;;0.00;0.00;;;19.70;80.80;;;;;;4933007;29;20032;-79
2022/05/16 00:27:35;;;;;;;0.40;0.40;;;19.40;82.10;;;;;;4931950;29;20504;-79
2022/05/16 00:30:13;;;;;;;2.83;1.58;;;19.30;83.10;;;;;;4931778;29;20063;-79
2022/05/16 00:32:39;;;;;;;0.28;0.20;;;19.20;84.40;;;;;;4932113;29;20044;-79
2022/05/16 00:35:07;;;;;;;0.00;0.00;;;18.30;86.50;;;;;;4932001;29;20114;-79
2022/05/16 00:37:33;;;;;;;0.00;0.00;;;18.20;87.50;;;;;;4931876;29;20038;-79
2022/05/16 00:39:59;;;;;;;0.43;0.32;;;18.30;87.40;;;;;;4931641;29;20040;-79
2022/05/16 00:42:25;;;;;;;0.13;0.13;;;18.30;88.10;;;;;;4931913;29;20531;-78
2022/05/16 00:44:51;;;;;;;0.20;0.20;;;18.30;88.50;;;;;;4931915;29;20035;-78
2022/05/16 00:47:17;;;;;;;0.57;0.55;;;18.50;88.00;;;;;;4931714;29;20106;-78
2022/05/16 00:49:47;;;;;;;1.65;0.55;;;18.60;87.90;;;;;;4933106;29;20040;-78
2022/05/16 00:52:20;;;;;;;0.03;0.03;;;18.50;88.80;;;;;;4931845;29;20039;-79
2022/05/16 00:54:56;;;;;;;0.20;0.10;;;18.70;83.40;;;;;;4931882;29;20036;-78
2022/05/16 00:57:45;;;;;;;0.05;0.03;;;18.80;86.50;;;;;;4931696;29;20083;-79
2022/05/16 01:00:11;;;;;;;0.00;0.00;;;18.90;86.80;;;;;;4931273;29;20071;-78
2022/05/16 01:05:28;;;;;;;0.13;0.13;;;18.90;86.30;;;;;;4943466;28;20031;-78
2022/05/16 01:07:59;;;;;;;0.35;0.30;;;18.70;88.20;;;;;;4955140;28;20039;-78
2022/05/16 01:10:24;;;;;;;;;;;18.80;86.50;;;;;;4968792;28;20118;-78
2022/05/16 01:12:53;;;;;;;0.25;0.20;;;18.90;86.40;;;;;;4966171;28;20000;-78
2022/05/16 01:15:46;;;;;;;0.28;0.28;;;19.10;85.60;;;;;;4985808;28;20046;-78
2022/05/16 01:18:16;;;;;;;0.00;0.00;;;19.20;84.90;;;;;;4969714;28;20031;-78
2022/05/16 01:21:32;;;;;;;0.80;0.70;;;19.40;84.60;;;;;;4969768;28;20066;-78
2022/05/16 01:24:06;;;;;;;0.10;0.10;;;19.50;84.50;;;;;;4966547;28;20035;-78
2022/05/16 01:26:33;;;;;;;0.03;0.03;;;19.60;85.00;;;;;;4954116;29;20039;-78
2022/05/16 01:28:59;;;;;;;0.05;0.05;;;19.20;88.80;;;;;;4955238;28;20031;-78
2022/05/16 01:31:25;;;;;;;1.27;1.05;;;19.20;86.90;;;;;;4986361;28;20081;-78
2022/05/16 01:33:52;;;;;;;0.00;0.00;;;19.20;87.10;;;;;;4985835;28;20031;-78
2022/05/16 01:36:18;;;;;;;1.23;0.80;;;19.30;87.30;;;;;;4985973;28;20023;-78
2022/05/16 01:38:44;;;;;;;3.35;1.00;;;19.40;86.50;;;;;;4985750;28;20061;-77
2022/05/16 01:41:17;;;;;;;0.25;0.25;;;19.40;87.30;;;;;;4989105;28;20106;-76
2022/05/16 01:43:57;;;;;;;0.10;0.10;;;19.10;89.00;;;;;;4973131;28;20392;-76
2022/05/16 01:46:32;;;;;;;0.35;0.25;;;19.00;89.90;;;;;;4974360;28;20023;-77
2022/05/16 01:48:58;;;;;;;0.10;0.10;;;19.10;89.80;;;;;;4972919;28;20113;-77
2022/05/16 01:51:24;;;;;;;3.83;1.33;;;19.20;88.10;;;;;;4974266;28;20090;-77
2022/05/16 01:53:52;;;;;;;1.25;0.73;;;19.30;88.80;;;;;;4974050;28;20146;-77
2022/05/16 01:56:18;;;;;;;0.73;0.68;;;19.10;89.50;;;;;;4974204;28;20031;-78
2022/05/16 01:58:44;;;;;;;0.88;0.85;;;19.20;89.80;;;;;;4972405;28;20049;-78
2022/05/16 02:01:13;;;;;;;1.25;0.43;;;19.10;89.90;;;;;;4972838;28;20026;-78
2022/05/16 02:03:41;;;;;;;0.43;0.43;;;19.00;89.90;;;;;;4991369;23;20058;-73
2022/05/16 02:06:07;;;;;;;0.70;0.70;;;18.80;90.60;;;;;;4990539;28;20479;-74
2022/05/16 02:08:33;;;;;;;0.13;0.10;;;18.80;90.80;;;;;;4992828;28;20034;-74
2022/05/16 02:11:02;;;;;;;0.30;0.30;;;18.80;90.70;;;;;;4992983;28;20113;-74
2022/05/16 02:13:28;;;;;;;0.65;0.65;;;18.90;90.70;;;;;;4961087;28;20034;-74
2022/05/16 02:15:54;;;;;;;0.00;0.00;;;18.80;90.60;;;;;;4969715;28;20089;-74
2022/05/16 02:18:20;;;;;;;1.52;1.33;;;18.70;90.70;;;;;;4975636;28;20038;-74
2022/05/16 02:20:46;;;;;;;1.75;1.10;;;18.70;91.00;;;;;;4992490;28;20035;-74
2022/05/16 02:25:57;;;;;;;0.00;0.00;;;18.50;92.10;;;;;;4992929;28;20503;-73
2022/05/16 02:28:24;;;;;;;0.00;0.00;;;18.60;92.20;;;;;;4992383;28;20022;-74
2022/05/16 02:30:52;;;;;;;0.90;0.75;;;18.60;92.20;;;;;;4974938;28;20578;-74
2022/05/16 02:33:19;;;;;;;1.10;0.35;;;18.60;92.30;;;;;;4975006;28;20053;-75
2022/05/16 02:35:46;;;;;;;0.45;0.45;;;18.60;92.40;;;;;;4975270;28;20032;-74
2022/05/16 02:38:15;;;;;;;0.35;0.35;;;18.60;92.70;;;;;;4975226;28;20054;-74
2022/05/16 02:40:41;;;;;;;0.00;0.00;;;18.50;93.00;;;;;;4975233;28;20070;-74
2022/05/16 02:43:07;;;;;;;3.60;1.27;;;18.50;93.20;;;;;;4974617;28;20031;-74
2022/05/16 02:45:35;;;;;;;0.00;0.00;;;18.50;93.40;;;;;;4992201;28;20034;-74
2022/05/16 02:48:02;;;;;;;0.80;0.63;;;18.50;93.80;;;;;;4974871;28;20034;-74
2022/05/16 02:50:29;;;;;;;0.45;0.43;;;18.40;94.00;;;;;;4991736;28;20030;-74
2022/05/16 02:52:55;;;;;;;0.00;0.00;;;18.40;94.20;;;;;;4992233;28;20576;-75
2022/05/16 02:55:22;;;;;;;0.00;0.00;;;18.40;94.20;;;;;;4992091;28;20046;-74
2022/05/16 02:57:48;;;;;;;0.00;0.00;;;18.40;94.30;;;;;;4974873;28;20062;-74
2022/05/16 03:00:16;;;;;;;0.00;0.00;;;18.40;94.60;;;;;;4974207;28;20037;-74
2022/05/16 03:02:43;;;;;;;0.13;0.13;;;18.40;94.80;;;;;;4974325;28;20422;-74
2022/05/16 03:05:10;;;;;;;0.00;0.00;;;18.30;95.20;;;;;;4974683;28;20137;-74
2022/05/16 03:07:37;;;;;;;0.70;0.68;;;18.10;95.30;;;;;;4974450;28;20145;-74
2022/05/16 03:10:05;;;;;;;0.25;0.13;;;18.00;95.90;;;;;;4974387;28;20022;-74
2022/05/16 03:12:30;;;;;;;0.25;0.25;;;17.90;96.50;;;;;;4974451;28;20022;-74
2022/05/16 03:14:56;;;;;;;0.20;0.20;;;17.90;96.70;;;;;;4968534;28;20042;-74
2022/05/16 03:17:23;;;;;;;22.27;1.13;;;17.90;96.90;;;;;;4954999;28;20031;-74
2022/05/16 03:19:49;;;;;;;0.00;0.00;;;17.80;97.10;;;;;;4955239;28;20027;-74
2022/05/16 03:22:15;;;;;;;0.63;0.20;;;17.60;97.70;;;;;;4955212;28;20029;-75
2022/05/16 03:24:41;;;;;;;0.77;0.65;;;17.30;98.60;;;;;;4972315;28;20039;-75
2022/05/16 03:27:07;;;;;;;1.40;0.75;;;17.40;98.60;;;;;;4954974;28;20427;-75
2022/05/16 03:29:33;;;;;;;0.20;0.10;;;17.20;99.30;;;;;;4971553;28;20034;-75
2022/05/16 03:31:59;;;;;;;0.35;0.35;;;17.20;99.90;;;;;;4972382;28;20073;-75
2022/05/16 03:34:25;;;;;;;0.20;0.20;;;17.30;99.90;;;;;;4972125;28;20031;-75
2022/05/16 03:36:51;;;;;;;0.15;0.03;;;17.20;99.90;;;;;;4972386;28;20045;-74
2022/05/16 03:42:01;;;;;;;0.10;0.10;;;17.30;99.90;;;;;;4971920;28;20474;-75
2022/05/16 03:44:26;;;;;;;1.60;0.45;;;17.30;99.90;;;;;;4971935;28;20049;-75
2022/05/16 03:46:52;;;;;;;10.60;2.00;;;17.00;99.90;;;;;;4971694;28;20522;-74
2022/05/16 03:49:18;;;;;;;0.52;0.35;;;16.80;99.90;;;;;;4971529;28;20430;-75
2022/05/16 03:51:45;;;;;;;0.00;0.00;;;16.70;99.90;;;;;;4971980;28;20042;-74
2022/05/16 03:54:11;;;;;;;0.73;0.73;;;16.60;99.90;;;;;;4971787;28;20131;-74
2022/05/16 03:56:37;;;;;;;0.10;0.10;;;16.80;99.90;;;;;;4971736;28;20492;-75
2022/05/16 03:59:03;;;;;;;0.32;0.32;;;16.90;99.90;;;;;;4957160;28;20031;-76
2022/05/16 04:01:29;;;;;;;0.10;0.10;;;16.60;99.90;;;;;;4963777;28;20033;-75
2022/05/16 04:03:56;;;;;;;0.13;0.13;;;16.70;99.90;;;;;;4954284;28;20039;-72
2022/05/16 04:06:22;;;;;;;4.07;0.47;;;16.70;99.90;;;;;;4971511;28;20039;-68
2022/05/16 04:08:48;;;;;;;0.00;0.00;;;16.50;99.90;;;;;;4963872;28;20031;-67
2022/05/16 04:11:16;;;;;;;0.15;0.15;;;16.60;99.90;;;;;;4955471;28;20388;-68
2022/05/16 04:13:47;;;;;;;1.17;0.45;;;16.70;99.90;;;;;;4964492;28;20552;-69
2022/05/16 04:16:13;;;;;;;2.05;0.80;;;16.60;99.90;;;;;;4962622;28;20499;-68
2022/05/16 04:18:41;;;;;;;0.55;0.30;;;16.60;99.90;;;;;;4964698;28;20117;-68
2022/05/16 04:21:07;;;;;;;0.00;0.00;;;16.30;99.90;;;;;;4980186;28;20030;-68
2022/05/16 04:23:33;;;;;;;0.38;0.32;;;16.40;99.90;;;;;;4981389;28;20030;-68
2022/05/16 04:25:59;;;;;;;0.35;0.17;;;16.40;99.90;;;;;;4968500;28;20113;-68
2022/05/16 04:28:25;;;;;;;0.90;0.65;;;16.40;99.90;;;;;;4973395;28;20534;-68
2022/05/16 04:30:51;;;;;;;1.52;1.42;;;16.50;99.90;;;;;;4990185;28;20037;-67
2022/05/16 04:33:18;;;;;;;4.40;1.98;;;16.60;99.90;;;;;;4972997;28;20030;-68
2022/05/16 04:35:44;;;;;;;0.00;0.00;;;16.60;99.90;;;;;;4990690;28;20027;-70
2022/05/16 04:38:09;;;;;;;3.40;1.67;;;16.90;99.90;;;;;;4990548;28;20030;-71
2022/05/16 04:42:40;;;;;;;1.90;1.25;;;16.90;99.90;;;;;;4990289;28;20026;-71
2022/05/16 04:43:21;;;;;;;4.35;0.82;;;16.90;99.90;;;;;;4973388;28;20096;-72
2022/05/16 04:45:47;;;;;;;3.50;1.52;;;17.00;99.90;;;;;;4954585;28;21466;-67
2022/05/16 04:48:13;;;;;;;1.88;1.38;;;17.10;99.90;;;;;;4977684;28;20034;-68
2022/05/16 04:50:38;;;;;;;0.00;0.00;;;17.10;99.90;;;;;;4975942;28;20098;-69
2022/05/16 04:53:05;;;;;;;0.80;0.80;;;17.20;99.90;;;;;;4980274;28;20034;-69
2022/05/16 04:55:31;;;;;;;0.60;0.60;;;17.30;99.90;;;;;;4921907;28;20046;-67
2022/05/16 04:57:58;;;;;;;0.17;0.17;;;17.40;99.90;;;;;;4962524;28;20067;-68
2022/05/16 05:00:25;;;;;;;0.20;0.20;;;17.50;99.90;;;;;;4950477;28;20043;-68
2022/05/16 05:02:51;;;;;;;1.27;0.55;;;17.40;99.90;;;;;;4953983;29;20142;-69
2022/05/16 05:05:19;;;;;;;0.45;0.30;;;17.50;99.90;;;;;;4953514;28;20046;-68
2022/05/16 05:07:46;;;;;;;0.10;0.10;;;17.70;99.90;;;;;;4955289;29;20614;-69
2022/05/16 05:15:45;;;;;;;0.22;0.17;;;17.90;99.90;;;;;;4973107;28;20102;-68
2022/05/16 05:18:11;;;;;;;1.10;0.68;;;18.00;99.90;;;;;;4974223;28;20038;-69
2022/05/16 05:20:37;;;;;;;0.30;0.30;;;18.10;99.90;;;;;;4974001;28;20031;-69
2022/05/16 05:23:04;;;;;;;0.10;0.10;;;18.30;99.90;;;;;;4974316;28;20541;-69
2022/05/16 05:25:31;;;;;;;0.43;0.43;;;18.50;99.90;;;;;;4974230;28;20043;-68
2022/05/16 05:28:02;;;;;;;0.10;0.10;;;18.70;99.90;;;;;;4972964;28;20078;-68
2022/05/16 05:30:30;;;;;;;0.00;0.00;;;18.80;99.90;;;;;;4973769;28;20129;-68
2022/05/16 05:32:57;;;;;;;0.28;0.28;;;19.00;99.00;;;;;;4972665;28;20046;-68
2022/05/16 05:35:23;;;;;;;1.27;0.85;;;19.10;99.10;;;;;;4972667;28;20387;-68
2022/05/16 05:37:49;;;;;;;0.03;0.03;;;19.00;99.20;;;;;;4973730;28;20023;-68
2022/05/16 05:40:15;;;;;;;0.30;0.22;;;19.10;99.50;;;;;;4962368;28;20032;-69
2022/05/16 05:42:41;;;;;;;0.20;0.20;;;19.20;99.10;;;;;;4940760;28;20467;-70
2022/05/16 05:45:09;;;;;;;0.00;0.00;;;19.20;99.20;;;;;;4952983;29;20042;-70
2022/05/16 05:47:39;;;;;;;0.28;0.28;;;19.20;99.50;;;;;;4954512;29;20023;-70
2022/05/16 05:50:07;;;;;;;12.85;1.90;;;19.20;98.90;;;;;;4953563;29;20121;-70
2022/05/16 05:52:33;;;;;;;0.00;0.00;;;19.40;99.10;;;;;;4953009;29;20089;-69
2022/05/16 05:54:59;;;;;;;0.00;0.00;;;19.40;98.80;;;;;;4954173;28;20479;-70
2022/05/16 05:57:25;;;;;;;0.20;0.10;;;19.50;99.10;;;;;;4952752;29;20090;-69
2022/05/16 05:59:56;;;;;;;32.90;0.80;;;19.60;98.80;;;;;;4953808;29;20085;-70
2022/05/16 06:02:23;;;;;;;8.32;1.95;;;19.60;98.70;;;;;;4952129;29;20035;-70
2022/05/16 06:04:49;;;;;;;0.38;0.32;;;19.70;98.30;;;;;;4952887;29;20098;-70
2022/05/16 06:07:15;;;;;;;0.05;0.05;;;19.70;98.40;;;;;;4944337;28;20555;-70
2022/05/16 06:09:41;;;;;;;59.92;8.50;;;20.00;98.20;;;;;;4957827;28;20023;-70
2022/05/16 06:12:09;;;;;;;0.88;0.77;;;20.10;98.30;;;;;;4973607;28;20034;-70
2022/05/16 06:14:35;;;;;;;0.30;0.30;;;20.20;98.30;;;;;;4971968;28;20023;-69
2022/05/16 06:17:01;;;;;;;0.05;0.05;;;20.20;97.80;;;;;;4956154;28;20020;-69
2022/05/16 06:19:27;;;;;;;0.90;0.30;;;20.30;97.70;;;;;;4933014;29;20115;-69
2022/05/16 06:21:52;;;;;;;0.10;0.10;;;20.30;98.00;;;;;;4934840;29;20056;-70
2022/05/16 06:27:05;;;;;;;1.73;0.93;;;20.40;97.60;;;;;;4952573;29;20055;-70
2022/05/16 06:29:31;;;;;;;0.73;0.63;;;20.40;98.00;;;;;;4953169;28;20059;-70
2022/05/16 06:31:57;;;;;;;1.05;0.95;;;20.40;98.30;;;;;;4952458;28;20388;-70
2022/05/16 06:34:23;;;;;;;3.03;1.05;;;20.60;98.30;;;;;;4953640;28;20042;-70
2022/05/16 06:36:51;;;;;;;0.25;0.10;;;20.60;99.00;;;;;;4953902;28;20495;-69
2022/05/16 06:39:17;;;;;;;0.90;0.90;;;20.70;99.10;;;;;;4962642;28;20417;-70
2022/05/16 06:41:42;;;;;;;25.95;0.55;;;20.80;97.70;;;;;;4972879;28;20030;-70
2022/05/16 06:44:11;;;;;;;0.20;0.20;;;20.80;97.60;;;;;;4972732;28;20035;-69
2022/05/16 06:46:37;;;;;;;3.42;1.13;;;20.70;97.70;;;;;;4972765;28;20058;-69
2022/05/16 06:49:03;;;;;;;0.90;0.65;;;20.80;97.50;;;;;;4972104;28;20077;-68
2022/05/16 06:51:29;;;;;;;0.10;0.10;;;20.80;97.60;;;;;;4972566;28;20031;-69
2022/05/16 06:53:55;;;;;;;9.55;3.63;;;20.60;98.00;;;;;;4972161;28;20031;-69
2022/05/16 06:56:21;;;;;;;0.00;0.00;;;20.50;98.20;;;;;;4972926;28;20027;-69
2022/05/16 06:58:46;;;;;;;0.50;0.20;;;20.50;98.30;;;;;;4968701;28;20035;-69
2022/05/16 07:01:12;;;;;;;0.30;0.25;;;20.50;98.40;;;;;;4953337;29;20043;-69
2022/05/16 07:03:40;;;;;;;1.60;0.77;;;20.60;98.40;;;;;;4951709;29;20038;-69
2022/05/16 07:06:06;;;;;;;0.00;0.00;;;20.70;98.20;;;;;;4951707;29;20633;-69
2022/05/16 07:08:33;;;;;;;0.00;0.00;;;20.70;98.20;;;;;;4956124;28;20043;-69
2022/05/16 07:10:59;;;;;;;6.28;1.40;;;20.90;98.40;;;;;;4972268;28;20031;-69
2022/05/16 07:13:26;;;;;;;0.20;0.20;;;20.90;98.30;;;;;;4971071;28;20519;-68
2022/05/16 07:15:54;;;;;;;0.00;0.00;;;20.80;98.50;;;;;;4971095;28;20054;-68
2022/05/16 07:18:20;;;;;;;0.05;0.05;;;20.80;98.40;;;;;;4970895;28;20469;-69
2022/05/16 07:20:47;;;;;;;0.28;0.17;;;20.80;98.60;;;;;;4970041;28;20034;-69
2022/05/16 07:23:14;;;;;;;0.03;0.03;;;20.90;98.20;;;;;;4970777;28;20541;-69
2022/05/16 07:28:24;;;;;;;1.17;1.08;;;21.00;98.90;;;;;;4972275;28;20411;-70
2022/05/16 07:30:51;;;;;;;2.35;1.08;;;21.10;98.30;;;;;;4970804;28;20031;-69
2022/05/16 07:33:18;;;;;;;0.00;0.00;;;21.20;97.70;;;;;;4970485;28;20026;-70
2022/05/16 07:35:44;;;;;;;0.00;0.00;;;21.20;98.20;;;;;;4970778;28;20030;-69
2022/05/16 07:38:10;;;;;;;0.10;0.10;;;21.30;98.70;;;;;;4971659;28;20023;-69
2022/05/16 07:40:37;;;;;;;0.28;0.28;;;21.30;98.30;;;;;;4971704;28;20031;-70
2022/05/16 07:43:04;;;;;;;0.93;0.70;;;21.20;98.30;;;;;;4970541;28;20026;-69
2022/05/16 07:45:31;;;;;;;0.22;0.10;;;21.20;98.70;;;;;;4970546;28;20030;-69
2022/05/16 07:48:00;;;;;;;0.38;0.38;;;21.30;98.20;;;;;;4971599;28;20469;-69
2022/05/16 07:50:25;;;;;;;0.80;0.52;;;21.50;97.30;;;;;;4971069;28;20031;-69
2022/05/16 07:52:51;;;;;;;0.15;0.15;;;21.50;97.70;;;;;;4972064;28;20041;-69
2022/05/16 07:55:22;;;;;;;0.98;0.52;;;21.40;97.40;;;;;;4970474;28;20387;-68
2022/05/16 07:57:48;;;;;;;0.30;0.30;;;21.60;97.00;;;;;;4970644;28;20442;-68
2022/05/16 08:00:16;;;;;;;0.00;0.00;;;21.80;95.70;;;;;;4955860;28;20073;-68
2022/05/16 08:02:42;;;;;;;0.00;0.00;;;22.00;96.10;;;;;;4978889;23;20077;-69
2022/05/16 08:05:12;;;;;;;0.10;0.10;;;22.10;95.40;;;;;;5000510;28;20030;-68
2022/05/16 08:10:29;;;;;;;0.30;0.30;;;22.20;94.40;;;;;;4991001;28;20498;-69
2022/05/16 08:10:31;;;;;;;0.30;0.28;;;22.30;94.90;;;;;;5027406;28;20044;-69
2022/05/16 08:12:58;;;;;;;0.32;0.32;;;22.50;94.70;;;;;;5030174;28;20040;-69
2022/05/16 08:15:25;;;;;;;0.63;0.57;;;22.60;94.50;;;;;;5030215;28;20048;-69
2022/05/16 08:17:52;;;;;;;0.20;0.20;;;22.60;94.70;;;;;;5028852;28;20029;-68
2022/05/16 08:20:18;;;;;;;5.85;2.42;;;22.80;94.00;;;;;;5020207;28;20022;-69
2022/05/16 08:22:44;;;;;;;0.75;0.70;;;22.80;94.00;;;;;;5008717;28;20037;-69
2022/05/16 08:25:10;;;;;;;4.50;0.70;;;22.80;94.00;;;;;;5010233;28;20041;-68
2022/05/16 08:27:36;;;;;;;0.00;0.00;;;22.90;93.80;;;;;;5010411;28;20570;-69
2022/05/16 08:30:03;;;;;;;0.52;0.45;;;22.90;94.30;;;;;;5009765;28;20046;-69
2022/05/16 08:32:29;;;;;;;0.00;0.00;;;23.10;94.00;;;;;;5012402;28;20130;-69
2022/05/16 08:35:03;;;;;;;0.00;0.00;;;23.20;93.90;;;;;;5014441;28;20109;-69
2022/05/16 08:40:14;;;;;;;0.80;0.80;;;23.30;93.30;;;;;;5030656;28;20021;-69
2022/05/16 08:43:03;;;;;;;2.20;1.27;;;23.20;93.80;;;;;;5032560;28;20083;-69
2022/05/16 08:45:38;;;;;;;1.00;0.65;;;23.30;94.60;;;;;;5032502;28;20040;-69
2022/05/16 08:48:17;;;;;;;0.20;0.20;;;23.40;94.10;;;;;;5033574;28;20108;-69
2022/05/16 08:50:57;;;;;;;0.52;0.52;;;23.40;93.50;;;;;;5032113;28;20029;-69
2022/05/16 08:53:36;;;;;;;0.10;0.10;;;23.40;93.90;;;;;;5032418;28;20112;-70
2022/05/16 08:56:08;;;;;;;0.30;0.30;;;23.60;94.00;;;;;;5032162;28;20037;-67
2022/05/16 08:58:49;;;;;;;2.35;1.23;;;23.80;93.70;;;;;;5030783;28;20083;-69
2022/05/16 09:01:29;;;;;;;0.52;0.52;;;23.80;93.40;;;;;;5012549;28;20038;-70
2022/05/16 09:04:10;;;;;;;10.73;1.42;;;23.90;93.80;;;;;;5012369;28;20056;-75
2022/05/16 09:07:07;;;;;;;1.88;0.80;;;24.10;93.80;;;;;;5012470;28;20038;-68
2022/05/16 09:09:52;;;;;;;0.52;0.30;;;23.90;93.40;;;;;;5020649;28;20083;-69
2022/05/16 09:12:27;;;;;;;0.47;0.47;;;24.10;94.30;;;;;;5032105;28;20480;-69
2022/05/16 09:15:26;;;;;;;1.80;0.95;;;24.40;93.30;;;;;;5033284;28;20041;-69
2022/05/16 09:18:24;;;;;;;1.20;0.70;;;24.30;93.20;;;;;;5032076;28;20022;-69
2022/05/16 09:21:16;;;;;;;0.28;0.22;;;24.40;93.30;;;;;;5031877;28;20087;-69
2022/05/16 09:24:09;;;;;;;1.00;0.63;;;24.50;93.70;;;;;;5033094;28;20033;-72
2022/05/16 09:27:13;;;;;;;0.32;0.32;;;24.40;95.20;;;;;;5031983;28;20030;-70
2022/05/16 09:29:46;;;;;;;0.52;0.38;;;24.60;94.10;;;;;;5032346;28;20037;-70
2022/05/16 09:32:28;;;;;;;0.40;0.30;;;24.80;95.00;;;;;;5031717;28;20477;-70
2022/05/16 09:34:54;;;;;;;0.25;0.25;;;24.90;94.10;;;;;;5031419;28;20112;-70
2022/05/16 09:37:20;;;;;;;3.63;0.57;;;25.00;94.40;;;;;;5027529;28;20479;-69
2022/05/16 09:39:48;;;;;;;11.02;2.20;;;25.00;93.60;;;;;;5025146;28;20088;-70
2022/05/16 09:42:21;;;;;;;1.17;0.70;;;24.90;93.20;;;;;;5030976;28;20029;-70
2022/05/16 09:45:01;;;;;;;2.95;0.73;;;24.90;94.00;;;;;;4991525;28;20118;-70
2022/05/16 09:47:34;;;;;;;9.73;0.93;;;25.10;93.50;;;;;;4992059;28;20092;-70
2022/05/16 09:50:02;;;;;;;1.15;1.02;;;25.20;93.30;;;;;;5007797;28;20045;-70
2022/05/16 09:52:31;;;;;;;0.75;0.57;;;25.30;92.70;;;;;;4992891;28;20057;-69
2022/05/16 09:55:42;;;;;;;1.90;1.08;;;25.20;93.10;;;;;;4991663;28;20041;-70
2022/05/16 09:58:30;;;;;;;;;;;25.40;93.30;;;;;;4993862;28;20498;-70
2022/05/16 10:01:09;;;;;;;0.60;0.60;;;25.60;93.90;;;;;;4992904;28;20000;-70
2022/05/16 10:03:49;;;;;;;0.10;0.10;;;25.70;92.70;;;;;;4992743;28;20050;-70
2022/05/16 10:06:36;;;;;;;5.53;2.17;;;26.00;91.50;;;;;;5008358;28;20097;-70
2022/05/16 10:09:14;;;;;;;18.63;2.13;;;26.30;91.10;;;;;;5007496;28;20022;-70
2022/05/16 10:11:43;;;;;;;0.63;0.50;;;26.30;90.70;;;;;;5031310;28;20029;-70
2022/05/16 10:14:10;;;;;;;3.72;1.58;;;26.60;90.30;;;;;;5030877;28;20018;-70
2022/05/16 10:16:41;;;;;;;2.10;1.00;;;26.80;90.40;;;;;;5011849;28;20060;-70
2022/05/16 10:19:15;;;;;;;0.82;0.65;;;26.70;89.50;;;;;;5010743;28;20053;-70
2022/05/16 10:21:56;;;;;;;0.13;0.10;;;26.50;90.20;;;;;;5011631;28;20453;-70
2022/05/16 10:24:27;;;;;;;0.30;0.30;;;26.60;89.20;;;;;;5010989;28;20163;-70
2022/05/16 10:26:56;;;;;;;2.35;1.48;;;26.60;89.30;;;;;;5011238;28;20026;-70
2022/05/16 10:29:36;;;;;;;5.63;1.15;;;26.40;90.90;;;;;;5010696;28;20119;-70
2022/05/16 10:35:09;;;;;;;1.60;1.23;;;26.00;91.20;;;;;;5009763;28;20476;-70
2022/05/16 10:37:42;;;;;;;2.05;0.68;;;26.10;91.10;;;;;;5010898;28;20393;-70
2022/05/16 10:40:31;;;;;;;1.98;0.82;;;25.60;91.80;;;;;;5026905;28;20037;-69
2022/05/16 10:43:35;;;;;;;0.85;0.70;;;25.70;90.50;;;;;;5021527;28;20041;-70
2022/05/16 10:46:35;;;;;;;0.05;0.05;;;25.60;90.60;;;;;;5007239;28;20052;-70
2022/05/16 10:49:13;;;;;;;0.20;0.20;;;25.70;90.10;;;;;;5003247;28;20118;-70
2022/05/16 10:51:54;;;;;;;11.70;0.68;;;25.50;90.30;;;;;;5010524;28;20032;-70
2022/05/16 10:54:27;;;;;;;3.10;1.10;;;25.30;90.40;;;;;;5007740;28;20107;-70
2022/05/16 10:57:42;;;;;;;0.10;0.00;;;25.30;90.70;;;;;;5010266;28;20442;-75
2022/05/16 11:00:14;;;;;;;7.93;3.35;;;25.70;90.40;;;;;;4981329;28;20502;-70
2022/05/16 11:03:17;;;;;;;0.10;0.10;;;25.90;89.40;;;;;;5006740;28;20049;-70
2022/05/16 11:06:11;;;;;;;1.10;0.73;;;25.80;90.10;;;;;;4992061;28;20034;-70
2022/05/16 11:08:52;;;;;;;3.47;1.92;;;25.80;90.20;;;;;;4998669;28;20041;-70
2022/05/16 11:11:35;;;;;;;0.10;0.10;;;25.70;89.70;;;;;;5030957;28;20040;-70
2022/05/16 11:14:38;;;;;;;1.92;1.42;;;25.50;90.50;;;;;;5029911;28;20087;-69
2022/05/16 11:17:49;;;;;;;5.57;1.25;;;25.40;90.10;;;;;;5031061;28;20033;-70
2022/05/16 11:20:32;;;;;;;0.90;0.82;;;25.30;90.60;;;;;;5030636;28;20029;-70
2022/05/16 11:23:38;;;;;;;0.75;0.57;;;25.20;90.50;;;;;;5029397;28;20044;-70
2022/05/16 11:26:27;;;;;;;0.00;0.00;;;25.20;90.60;;;;;;5030847;28;20033;-70
2022/05/16 11:29:17;;;;;;;2.92;1.88;;;25.30;90.60;;;;;;5028949;28;20030;-70
2022/05/16 11:32:39;;;;;;;12.27;5.55;;;25.10;90.30;;;;;;5029852;28;20258;-70
2022/05/16 11:35:18;;;;;;;0.08;0.08;;;25.30;89.70;;;;;;4960120;28;20067;-69
2022/05/16 11:38:24;;;;;;;0.95;0.88;;;25.30;90.00;;;;;;5030760;28;20029;-70
2022/05/16 11:41:27;;;;;;;0.10;0.10;;;25.10;90.20;;;;;;5010593;28;20049;-70
2022/05/16 11:44:24;;;;;;;0.30;0.30;;;25.00;90.30;;;;;;5010788;28;20140;-69
2022/05/16 11:47:16;;;;;;;1.95;0.93;;;24.80;90.70;;;;;;5009978;28;20030;-70
2022/05/16 11:50:16;;;;;;;9.68;4.00;;;24.50;91.60;;;;;;5008809;28;20114;-72
2022/05/16 11:52:56;;;;;;;9.07;1.07;;;24.20;92.30;;;;;;5010543;28;20029;-70
2022/05/16 12:01:21;;;;;;;0.70;0.65;;;24.40;92.20;;;;;;4990999;28;20030;-71
2022/05/16 12:04:15;;;;;;;0.40;0.40;;;24.30;91.90;;;;;;4975903;28;20069;-70
2022/05/16 12:06:50;;;;;;;0.17;0.17;;;24.40;92.10;;;;;;4990377;28;20026;-70
2022/05/16 12:09:24;;;;;;;0.20;0.20;;;24.40;92.20;;;;;;4998917;28;20064;-71
2022/05/16 12:12:02;;;;;;;0.20;0.20;;;24.50;91.90;;;;;;5009225;28;20083;-71
2022/05/16 12:14:37;;;;;;;20.52;1.90;;;24.50;92.40;;;;;;5010126;28;20121;-70
2022/05/16 12:17:16;;;;;;;0.70;0.47;;;24.50;92.10;;;;;;5009308;28;20026;-70
2022/05/16 12:19:48;;;;;;;0.77;0.65;;;24.60;91.80;;;;;;5009965;28;20042;-70
2022/05/16 12:22:30;;;;;;;0.20;0.10;;;24.50;90.50;;;;;;5008223;28;20462;-70
2022/05/16 12:25:02;;;;;;;0.00;0.00;;;24.80;90.20;;;;;;5010498;28;20033;-70
2022/05/16 12:27:43;;;;;;;0.00;0.00;;;24.70;89.20;;;;;;5008992;28;20393;-70
2022/05/16 12:30:11;;;;;;;0.05;0.05;;;24.50;88.60;;;;;;5009488;28;20066;-71
2022/05/16 12:32:37;;;;;;;0.00;0.00;;;24.40;88.30;;;;;;5010085;28;20069;-71
2022/05/16 12:35:07;;;;;;;0.00;0.00;;;24.40;88.30;;;;;;5009841;28;20026;-71
2022/05/16 12:37:36;;;;;;;0.32;0.32;;;24.30;88.40;;;;;;5010056;28;20116;-70
2022/05/16 12:40:16;;;;;;;0.15;0.15;;;24.20;88.50;;;;;;5008639;28;20069;-70
2022/05/16 12:43:07;;;;;;;0.50;0.50;;;24.20;88.30;;;;;;4993212;28;20113;-71
2022/05/16 12:46:05;;;;;;;0.00;0.00;;;24.10;88.80;;;;;;4993073;28;20029;-70
2022/05/16 12:48:55;;;;;;;0.05;0.05;;;24.10;88.90;;;;;;5009531;28;20053;-70
2022/05/16 12:51:50;;;;;;;0.00;0.00;;;24.10;88.80;;;;;;5009923;28;20069;-71
2022/05/16 12:55:00;;;;;;;0.00;0.00;;;23.90;88.50;;;;;;5008783;28;20029;-70
2022/05/16 12:57:29;;;;;;;0.47;0.33;;;23.80;89.40;;;;;;5009867;28;20456;-70
2022/05/16 13:00:07;;;;;;;0.03;0.03;;;23.80;90.00;;;;;;5009430;28;20285;-70
2022/05/16 13:03:15;;;;;;;0.00;0.00;;;23.60;89.80;;;;;;5009846;28;20030;-71
2022/05/16 13:05:47;;;;;;;0.00;0.00;;;23.60;91.00;;;;;;5009939;28;20391;-71
2022/05/16 13:08:34;;;;;;;0.47;0.10;;;23.40;91.50;;;;;;5008653;28;20029;-70
2022/05/16 13:11:50;;;;;;;0.00;0.00;;;23.30;92.50;;;;;;4990530;28;20030;-71
2022/05/16 13:14:29;;;;;;;0.10;0.10;;;23.00;93.80;;;;;;5002424;28;20557;-71
2022/05/16 13:17:08;;;;;;;0.00;0.00;;;22.40;94.90;;;;;;5003971;28;20128;-71
2022/05/16 13:19:43;;;;;;;0.10;0.10;;;22.10;95.80;;;;;;5006774;28;20437;-71
2022/05/16 13:22:19;;;;;;;0.30;0.20;;;22.10;96.20;;;;;;4976616;28;20030;-71
2022/05/16 13:24:46;;;;;;;0.05;0.05;;;22.00;96.80;;;;;;4992704;28;20023;-71
2022/05/16 13:30:09;;;;;;;1.35;1.25;;;22.30;96.70;;;;;;4993007;28;20398;-71
2022/05/16 13:32:35;;;;;;;0.20;0.00;;;22.40;96.70;;;;;;4976206;28;20038;-71
2022/05/16 13:35:07;;;;;;;0.17;0.15;;;22.30;97.60;;;;;;4993683;28;20034;-71
2022/05/16 13:38:00;;;;;;;1.00;0.90;;;22.50;97.20;;;;;;4992282;28;20462;-71
2022/05/16 13:40:42;;;;;;;3.30;2.28;;;22.60;97.60;;;;;;5008400;28;20071;-71
2022/05/16 13:43:20;;;;;;;0.20;0.13;;;22.70;96.90;;;;;;4996170;28;20374;-71
2022/05/16 13:45:46;;;;;;;0.00;0.00;;;22.70;96.80;;;;;;5011423;28;20033;-71
2022/05/16 13:48:17;;;;;;;0.00;0.00;;;22.70;97.20;;;;;;5011159;28;20034;-71
2022/05/16 13:50:47;;;;;;;0.00;0.00;;;22.50;97.10;;;;;;5012488;28;20037;-70